Time;durP1;ratioP1;P1;durP2;ratioP2;P2;SDS_P1;SDS_P2;PMS_P1;PMS_P2;Temp;Humidity;BMP_temperature;BMP_pressure;BME280_temperature;BME280_humidity;BME280_pressure;Samples;Min_cycle;Max_cycle;Signal;HPM_P1;HPM_P2
2023/03/18 00:01:53;;;;;;;;;;;;;;;-144.99;74.91;52397.13;5039551;28;20023;-69
2023/03/18 00:04:20;;;;;;;;;;;;;;;-144.99;74.83;52374.72;5036186;28;19961;-69
2023/03/18 00:06:46;;;;;;;;;;;;;;;-144.99;74.78;52344.16;5040697;28;19928;-69
2023/03/18 00:09:14;;;;;;;;;;;;;;;-144.99;74.82;52329.88;5036468;28;19932;-70
2023/03/18 00:11:40;;;;;;;;;;;;;;;-144.99;74.69;52346.19;5041322;28;19928;-68
2023/03/18 00:14:07;;;;;;;;;;;;;;;-144.99;74.77;52374.72;5041362;28;20340;-68
2023/03/18 00:16:34;;;;;;;;;;;;;;;-144.99;74.72;52301.34;5041470;28;19924;-71
2023/03/18 00:19:02;;;;;;;;;;;;;;;-144.99;74.69;52329.88;5045604;28;19925;-71
2023/03/18 00:21:29;;;;;;;;;;;;;;;-144.99;74.53;52366.56;5045047;28;19961;-71
2023/03/18 00:23:57;;;;;;;;;;;;;;;-144.99;74.45;52342.09;5044409;28;19925;-74
2023/03/18 00:26:24;;;;;;;;;;;;;;;-144.99;74.83;52346.19;5043863;28;19979;-73
2023/03/18 00:28:51;;;;;;;;;;;;;;;-144.99;74.92;52317.66;5036545;28;20356;-73
2023/03/18 00:31:18;;;;;;;;;;;;;;;-144.99;75.00;52378.78;5044640;28;20022;-74
2023/03/18 00:33:45;;;;;;;;;;;;;;;-144.99;75.20;52327.84;5053975;28;19929;-74
2023/03/18 00:36:13;;;;;;;;;;;;;;;-144.99;75.65;52366.56;5048329;28;19983;-74
2023/03/18 00:38:41;;;;;;;;;;;;;;;-144.99;75.58;52346.19;5046497;28;20382;-73
2023/03/18 00:41:11;;;;;;;;;;;;;;;-144.99;75.72;52333.94;5044435;28;20024;-74
2023/03/18 00:43:44;;;;;;;;;;;;;;;-144.99;75.61;52354.34;5039813;28;19975;-74
2023/03/18 00:46:11;;;;;;;;;;;;;;;-144.99;75.70;52333.94;5050749;28;19991;-75
2023/03/18 00:48:38;;;;;;;;;;;;;;;-144.99;75.60;52382.88;5050212;28;20145;-74
2023/03/18 00:51:05;;;;;;;;;;;;;;;-144.99;75.78;52350.25;5047306;28;19925;-76
2023/03/18 00:53:33;;;;;;;;;;;;;;;-144.99;75.67;52366.56;5055552;28;19971;-74
2023/03/18 00:56:00;;;;;;;;;;;;;;;-144.99;75.62;52354.34;5050548;28;19929;-74
2023/03/18 00:58:26;;;;;;;;;;;;;;;-144.99;75.58;52346.19;5048102;28;20027;-76
2023/03/18 01:00:53;;;;;;;;;;;;;;;-144.99;75.65;52333.94;5038340;28;19929;-73
2023/03/18 01:03:20;;;;;;;;;;;;;;;-144.99;75.78;52325.81;5041488;28;19929;-69
2023/03/18 01:05:46;;;;;;;;;;;;;;;-144.99;75.89;52313.56;5051293;28;19933;-75
2023/03/18 01:08:13;;;;;;;;;;;;;;;-144.99;75.77;52350.25;5049007;28;19963;-78
2023/03/18 01:10:41;;;;;;;;;;;;;;;-144.99;75.78;52350.25;5038023;28;20019;-75
2023/03/18 01:13:07;;;;;;;;;;;;;;;-144.99;75.81;52346.19;5046894;28;19925;-75
2023/03/18 01:15:34;;;;;;;;;;;;;;;-144.99;76.18;52364.53;5042576;28;20440;-74
2023/03/18 01:18:01;;;;;;;;;;;;;;;-144.99;76.27;52333.94;5046619;28;20018;-75
2023/03/18 01:20:28;;;;;;;;;;;;;;;-144.99;76.31;52329.88;5047338;28;19937;-76
2023/03/18 01:22:55;;;;;;;;;;;;;;;-144.99;76.07;52340.06;5036685;28;19925;-75
2023/03/18 01:25:22;;;;;;;;;;;;;;;-144.99;76.42;52346.19;5043299;28;20293;-74
2023/03/18 01:27:50;;;;;;;;;;;;;;;-144.99;76.65;52350.25;5045055;28;19928;-74
2023/03/18 01:30:17;;;;;;;;;;;;;;;-144.99;76.67;52333.94;5050451;28;19979;-74
2023/03/18 01:32:43;;;;;;;;;;;;;;;-144.99;76.50;52370.63;5060460;28;19945;-73
2023/03/18 01:35:11;;;;;;;;;;;;;;;-144.99;76.80;52350.25;5054365;28;19955;-74
2023/03/18 01:37:37;;;;;;;;;;;;;;;-144.99;76.93;52366.56;5047270;28;19976;-73
2023/03/18 01:40:05;;;;;;;;;;;;;;;-144.99;76.88;52309.50;5040902;28;19925;-73
2023/03/18 01:42:32;;;;;;;;;;;;;;;-144.99;77.01;52366.56;5050398;28;19925;-73
2023/03/18 01:45:18;;;;;;;;;;;;;;;-144.99;77.10;52350.25;5041945;28;19980;-73
2023/03/18 01:47:45;;;;;;;;;;;;;;;-144.99;77.35;52350.25;5045453;28;20385;-73
2023/03/18 01:50:12;;;;;;;;;;;;;;;-144.99;77.23;52366.56;5039855;28;20006;-70
2023/03/18 01:52:39;;;;;;;;;;;;;;;-144.99;77.37;52348.22;5046554;28;19924;-69
2023/03/18 01:55:07;;;;;;;;;;;;;;;-144.99;77.54;52342.09;5046717;28;19986;-72
2023/03/18 01:57:34;;;;;;;;;;;;;;;-144.99;77.90;52366.56;5047670;28;19932;-73
2023/03/18 02:00:03;;;;;;;;;;;;;;;-144.99;77.89;52333.94;5035494;28;19960;-73
2023/03/18 02:02:32;;;;;;;;;;;;;;;-144.99;77.88;52340.06;5038521;28;19929;-75
2023/03/18 02:05:02;;;;;;;;;;;;;;;-144.99;78.03;52342.09;5043176;28;19972;-65
2023/03/18 02:07:30;;;;;;;;;;;;;;;-144.99;78.13;52321.72;5048391;28;19979;-64
2023/03/18 02:09:57;;;;;;;;;;;;;;;-144.99;77.85;52342.09;5043209;28;19947;-64
2023/03/18 02:12:25;;;;;;;;;;;;;;;-144.99;78.41;52338.03;5041127;28;20424;-64
2023/03/18 02:14:53;;;;;;;;;;;;;;;-144.99;78.59;52325.81;5050667;28;20155;-73
2023/03/18 02:17:22;;;;;;;;;;;;;;;-144.99;79.05;52366.56;5038890;28;19925;-72
2023/03/18 02:19:56;;;;;;;;;;;;;;;-144.99;79.22;52327.84;5048174;28;19925;-72
2023/03/18 02:22:25;;;;;;;;;;;;;;;-144.99;79.87;52305.41;5032758;28;19929;-73
2023/03/18 02:24:59;;;;;;;;;;;;;;;-144.99;80.48;52333.94;5050426;28;19933;-72
2023/03/18 02:27:28;;;;;;;;;;;;;;;-144.99;80.94;52358.41;5042599;28;20023;-73
2023/03/18 02:29:56;;;;;;;;;;;;;;;-144.99;81.85;52338.03;5034727;28;19933;-72
2023/03/18 02:32:25;;;;;;;;;;;;;;;-144.99;81.88;52399.19;5036797;28;19936;-72
2023/03/18 02:34:52;;;;;;;;;;;;;;;-144.99;82.16;52346.19;5054343;28;19929;-71
2023/03/18 02:37:18;;;;;;;;;;;;;;;-144.99;82.16;52358.41;5063329;28;20439;-72
2023/03/18 02:39:45;;;;;;;;;;;;;;;-144.99;82.00;52325.81;5044160;28;19925;-67
2023/03/18 02:42:13;;;;;;;;;;;;;;;-144.99;81.85;52348.22;5055115;28;19933;-67
2023/03/18 02:44:44;;;;;;;;;;;;;;;-144.99;82.33;52342.09;5055443;28;20232;-67
2023/03/18 02:47:14;;;;;;;;;;;;;;;-144.99;82.95;52329.88;5049532;28;19932;-67
2023/03/18 02:49:40;;;;;;;;;;;;;;;-144.99;82.95;52311.53;5046043;28;19972;-70
2023/03/18 02:52:07;;;;;;;;;;;;;;;-144.99;83.57;52360.44;5055676;28;19964;-71
2023/03/18 02:54:33;;;;;;;;;;;;;;;-144.99;83.25;52362.50;5049316;28;19925;-73
2023/03/18 02:57:00;;;;;;;;;;;;;;;-144.99;83.46;52368.59;5036354;28;19925;-72
2023/03/18 02:59:27;;;;;;;;;;;;;;;-144.99;83.96;52325.81;5035139;28;20008;-73
2023/03/18 03:01:56;;;;;;;;;;;;;;;-144.99;85.00;52309.50;5037781;28;19932;-71
2023/03/18 03:04:23;;;;;;;;;;;;;;;-144.99;85.38;52338.03;5045834;28;19928;-72
2023/03/18 03:06:50;;;;;;;;;;;;;;;-144.99;85.96;52329.88;5037341;28;19994;-72
2023/03/18 03:09:17;;;;;;;;;;;;;;;-144.99;85.51;52370.63;5037092;28;19929;-72
2023/03/18 03:11:45;;;;;;;;;;;;;;;-144.99;86.52;52358.41;5046150;28;19926;-71
2023/03/18 03:14:12;;;;;;;;;;;;;;;-144.99;86.97;52309.50;5040912;28;19928;-71
2023/03/18 03:16:39;;;;;;;;;;;;;;;-144.99;87.48;52329.88;5046118;28;19925;-71
2023/03/18 03:19:07;;;;;;;;;;;;;;;-144.99;87.13;52329.88;5044867;28;19925;-72
2023/03/18 03:21:34;;;;;;;;;;;;;;;-144.99;87.34;52342.09;5052795;28;19929;-72
2023/03/18 03:24:01;;;;;;;;;;;;;;;-144.99;87.13;52307.47;5046897;28;19925;-71
2023/03/18 03:26:28;;;;;;;;;;;;;;;-144.99;87.16;52333.94;5043415;28;19925;-70
2023/03/18 03:28:55;;;;;;;;;;;;;;;-144.99;87.07;52346.19;5039958;28;19929;-70
2023/03/18 03:31:22;;;;;;;;;;;;;;;-144.99;86.71;52325.81;5038254;28;19938;-71
2023/03/18 03:33:49;;;;;;;;;;;;;;;-144.99;86.37;52342.09;5055158;28;19975;-71
2023/03/18 03:36:17;;;;;;;;;;;;;;;-144.99;87.25;52354.34;5055411;28;19924;-71
2023/03/18 03:38:44;;;;;;;;;;;;;;;-144.99;87.36;52309.50;5055894;28;19924;-70
2023/03/18 03:41:11;;;;;;;;;;;;;;;-144.99;87.00;52342.09;5051801;28;19987;-70
2023/03/18 03:43:38;;;;;;;;;;;;;;;-144.99;87.05;52350.25;5062178;28;19929;-67
2023/03/18 03:46:05;;;;;;;;;;;;;;;-144.99;86.98;52309.50;5057605;28;19925;-70
2023/03/18 03:48:31;;;;;;;;;;;;;;;-144.99;86.84;52374.72;5040029;28;19929;-70
2023/03/18 03:50:58;;;;;;;;;;;;;;;-144.99;87.14;52333.94;5041575;28;19929;-71
2023/03/18 03:53:27;;;;;;;;;;;;;;;-144.99;87.07;52370.63;5044722;28;19984;-71
2023/03/18 03:55:53;;;;;;;;;;;;;;;-144.99;87.44;52358.41;5043486;28;20408;-71
2023/03/18 03:58:20;;;;;;;;;;;;;;;-144.99;87.21;52333.94;5039007;28;19932;-71
2023/03/18 04:00:46;;;;;;;;;;;;;;;-144.99;87.91;52372.69;5033651;28;19934;-71
2023/03/18 04:03:13;;;;;;;;;;;;;;;-144.99;87.72;52374.72;5049025;28;19986;-70
2023/03/18 04:05:40;;;;;;;;;;;;;;;-144.99;87.65;52342.09;5047296;28;20047;-71
2023/03/18 04:08:07;;;;;;;;;;;;;;;-144.99;87.61;52336.00;5042903;28;20123;-70
2023/03/18 04:10:35;;;;;;;;;;;;;;;-144.99;87.96;52354.34;5045099;28;19929;-69
2023/03/18 04:13:02;;;;;;;;;;;;;;;-144.99;87.97;52382.88;5038468;28;20341;-69
2023/03/18 04:15:29;;;;;;;;;;;;;;;-144.99;87.93;52354.34;5036860;28;19929;-69
2023/03/18 04:17:55;;;;;;;;;;;;;;;-144.99;88.38;52338.03;5040702;28;20185;-69
2023/03/18 04:20:22;;;;;;;;;;;;;;;-144.99;88.42;52352.28;5036836;28;19929;-69
2023/03/18 04:22:49;;;;;;;;;;;;;;;-144.99;88.25;52366.56;5037558;28;20030;-66
2023/03/18 04:25:15;;;;;;;;;;;;;;;-144.99;88.00;52374.72;5037701;28;19925;-66
2023/03/18 04:27:43;;;;;;;;;;;;;;;-144.99;88.04;52325.81;5033250;28;19932;-67
2023/03/18 04:30:10;;;;;;;;;;;;;;;-144.99;88.18;52329.88;5058340;28;19925;-67
2023/03/18 04:32:37;;;;;;;;;;;;;;;-144.99;88.74;52358.41;5056082;28;19987;-72
2023/03/18 04:35:04;;;;;;;;;;;;;;;-144.99;89.32;52366.56;5038054;28;19925;-72
2023/03/18 04:37:33;;;;;;;;;;;;;;;-144.99;89.04;52354.34;5038043;28;20309;-71
2023/03/18 04:39:59;;;;;;;;;;;;;;;-144.99;88.84;52333.94;5036306;28;19929;-72
2023/03/18 04:42:26;;;;;;;;;;;;;;;-144.99;88.47;52362.50;5044369;28;19937;-72
2023/03/18 04:44:54;;;;;;;;;;;;;;;-144.99;89.24;52311.53;5048160;28;19975;-72
2023/03/18 04:47:21;;;;;;;;;;;;;;;-144.99;89.50;52360.44;5035144;28;19982;-67
2023/03/18 04:49:48;;;;;;;;;;;;;;;-144.99;89.36;52350.25;5042122;28;19929;-67
2023/03/18 04:52:15;;;;;;;;;;;;;;;-144.99;89.62;52374.72;5028982;28;20449;-68
2023/03/18 04:54:42;;;;;;;;;;;;;;;-144.99;89.13;52333.94;5035201;28;19925;-67
2023/03/18 04:57:08;;;;;;;;;;;;;;;-144.99;89.52;52305.41;5039591;28;19957;-67
2023/03/18 04:59:35;;;;;;;;;;;;;;;-144.99;89.74;52344.16;5035980;28;19986;-69
2023/03/18 05:02:03;;;;;;;;;;;;;;;-144.99;89.87;52378.78;5047645;28;20088;-68
2023/03/18 05:04:30;;;;;;;;;;;;;;;-144.99;89.54;52325.81;5049951;28;20325;-70
2023/03/18 05:06:57;;;;;;;;;;;;;;;-144.99;89.63;52325.81;5043443;28;19925;-69
2023/03/18 05:09:24;;;;;;;;;;;;;;;-144.99;89.92;52362.50;5042952;28;19929;-70
2023/03/18 05:11:50;;;;;;;;;;;;;;;-144.99;89.90;52378.78;5047861;28;19940;-69
2023/03/18 05:14:17;;;;;;;;;;;;;;;-144.99;89.86;52346.19;5044154;28;19929;-72
2023/03/18 05:16:43;;;;;;;;;;;;;;;-144.99;89.72;52370.63;5044065;28;19925;-71
2023/03/18 05:19:11;;;;;;;;;;;;;;;-144.99;89.16;52325.81;5043124;28;19925;-73
2023/03/18 05:21:38;;;;;;;;;;;;;;;-144.99;89.20;52354.34;5042607;28;20337;-73
2023/03/18 05:24:05;;;;;;;;;;;;;;;-144.99;89.56;52309.50;5040757;28;19948;-73
2023/03/18 05:26:31;;;;;;;;;;;;;;;-144.99;89.76;52342.09;5036760;28;19983;-73
2023/03/18 05:28:58;;;;;;;;;;;;;;;-144.99;89.83;52342.09;5040688;28;19971;-73
2023/03/18 05:31:25;;;;;;;;;;;;;;;-144.99;89.82;52346.19;5047457;28;19932;-73
2023/03/18 05:33:51;;;;;;;;;;;;;;;-144.99;90.04;52366.56;5042172;28;20017;-71
2023/03/18 05:36:19;;;;;;;;;;;;;;;-144.99;90.09;52321.72;5043003;28;19982;-68
2023/03/18 05:38:46;;;;;;;;;;;;;;;-144.99;89.77;52358.41;5041146;28;19924;-68
2023/03/18 05:41:12;;;;;;;;;;;;;;;-144.99;90.18;52362.50;5044378;28;19929;-68
2023/03/18 05:43:39;;;;;;;;;;;;;;;-144.99;89.95;52329.88;5043562;28;20344;-68
2023/03/18 05:46:05;;;;;;;;;;;;;;;-144.99;90.02;52338.03;5041797;28;19964;-68
2023/03/18 05:48:33;;;;;;;;;;;;;;;-144.99;90.08;52348.22;5035068;28;20293;-69
2023/03/18 05:50:59;;;;;;;;;;;;;;;-144.99;90.53;52362.50;5047064;28;19929;-69
2023/03/18 05:53:27;;;;;;;;;;;;;;;-144.99;90.46;52313.56;5045008;28;19994;-68
2023/03/18 05:55:55;;;;;;;;;;;;;;;-144.99;90.56;52342.09;5045846;28;19929;-72
2023/03/18 05:58:21;;;;;;;;;;;;;;;-144.99;90.56;52309.50;5040090;28;19983;-70
2023/03/18 06:00:49;;;;;;;;;;;;;;;-144.99;90.12;52311.53;5027753;22;19934;-71
2023/03/18 06:03:16;;;;;;;;;;;;;;;-144.99;90.23;52301.34;5001430;28;19937;-71
2023/03/18 06:05:43;;;;;;;;;;;;;;;-144.99;90.54;52346.19;5002243;28;19979;-70
2023/03/18 06:08:09;;;;;;;;;;;;;;;-144.99;90.53;52329.88;5008346;28;19962;-70
2023/03/18 06:10:37;;;;;;;;;;;;;;;-144.99;90.57;52309.50;5009676;28;19979;-70
2023/03/18 06:13:04;;;;;;;;;;;;;;;-144.99;90.93;52352.28;5009719;28;19979;-66
2023/03/18 06:15:32;;;;;;;;;;;;;;;-144.99;91.14;52321.72;5008996;28;20007;-65
2023/03/18 06:17:58;;;;;;;;;;;;;;;-144.99;91.02;52317.66;5007157;28;20417;-64
2023/03/18 06:20:25;;;;;;;;;;;;;;;-144.99;91.00;52338.03;5007842;28;20119;-64
2023/03/18 06:22:51;;;;;;;;;;;;;;;-144.99;91.19;52309.50;5008759;28;19925;-64
2023/03/18 06:25:18;;;;;;;;;;;;;;;-144.99;91.54;52333.94;5009370;28;20008;-68
2023/03/18 06:27:46;;;;;;;;;;;;;;;-144.99;91.31;52313.56;5007883;28;19979;-68
2023/03/18 06:30:14;;;;;;;;;;;;;;;-144.99;91.41;52305.41;5009816;28;20011;-68
2023/03/18 06:32:40;;;;;;;;;;;;;;;-144.99;92.19;52317.66;5009560;28;19926;-68
2023/03/18 06:35:07;;;;;;;;;;;;;;;-144.99;91.65;52358.41;5009579;28;19926;-68
2023/03/18 06:37:34;;;;;;;;;;;;;;;-144.99;92.13;52329.88;5009575;28;19992;-68
2023/03/18 06:40:00;;;;;;;;;;;;;;;-144.99;91.88;52317.66;5008004;28;20449;-69
2023/03/18 06:42:27;;;;;;;;;;;;;;;-144.99;92.33;52336.00;5010167;28;19925;-69
2023/03/18 06:44:55;;;;;;;;;;;;;;;-144.99;92.18;52350.25;5012541;28;19965;-70
2023/03/18 06:47:21;;;;;;;;;;;;;;;-144.99;91.22;52370.63;5011572;28;19926;-72
2023/03/18 06:49:48;;;;;;;;;;;;;;;-144.99;91.26;52313.56;5012123;28;19926;-73
2023/03/18 06:52:16;;;;;;;;;;;;;;;-144.99;90.49;52285.03;5009257;28;19952;-74
2023/03/18 06:54:43;;;;;;;;;;;;;;;-144.99;90.42;52344.16;5007398;28;19925;-75
2023/03/18 06:57:10;;;;;;;;;;;;;;;-144.99;91.45;52325.81;5008529;28;19972;-74
2023/03/18 06:59:36;;;;;;;;;;;;;;;-144.99;91.73;52333.94;5007854;28;19929;-76
2023/03/18 07:02:05;;;;;;;;;;;;;;;-144.99;90.44;52289.13;5007987;28;19937;-70
2023/03/18 07:04:32;;;;;;;;;;;;;;;-144.99;89.94;52338.03;5008997;28;19926;-70
2023/03/18 07:06:59;;;;;;;;;;;;;;;-144.99;89.46;52293.19;5007912;28;20164;-69
2023/03/18 07:09:25;;;;;;;;;;;;;;;-144.99;89.49;52366.56;5009440;28;20343;-69
2023/03/18 07:11:52;;;;;;;;;;;;;;;-144.99;89.99;52342.09;5009380;28;19933;-69
2023/03/18 07:14:18;;;;;;;;;;;;;;;-144.99;90.05;52329.88;5009718;28;19933;-71
2023/03/18 07:16:45;;;;;;;;;;;;;;;-144.99;89.74;52283.00;5004616;28;19945;-65
2023/03/18 07:19:14;;;;;;;;;;;;;;;-144.99;89.97;52297.25;5002980;28;19935;-65
2023/03/18 07:21:41;;;;;;;;;;;;;;;-144.99;90.32;52276.88;5009495;28;20468;-65
2023/03/18 07:24:08;;;;;;;;;;;;;;;-144.99;90.17;52338.03;5009162;28;19926;-65
2023/03/18 07:26:36;;;;;;;;;;;;;;;-144.99;89.97;52297.25;5007522;28;19979;-67
2023/03/18 07:29:02;;;;;;;;;;;;;;;-144.99;90.01;52321.72;5006384;28;19994;-65
2023/03/18 07:31:29;;;;;;;;;;;;;;;-144.99;89.69;52297.25;5009205;28;19981;-65
2023/03/18 07:33:56;;;;;;;;;;;;;;;-144.99;89.51;52317.66;5007503;28;20027;-66
2023/03/18 07:36:25;;;;;;;;;;;;;;;-144.99;89.20;52313.56;5005563;28;19976;-65
2023/03/18 07:38:52;;;;;;;;;;;;;;;-144.99;89.16;52338.03;5007012;28;19969;-66
2023/03/18 07:41:18;;;;;;;;;;;;;;;-144.99;89.20;52331.91;5008683;28;20359;-65
2023/03/18 07:43:45;;;;;;;;;;;;;;;-144.99;89.02;52329.88;5010281;28;19930;-66
2023/03/18 07:46:11;;;;;;;;;;;;;;;-144.99;89.25;52315.59;5009836;28;20228;-66
2023/03/18 07:48:38;;;;;;;;;;;;;;;-144.99;89.00;52325.81;5009036;28;20332;-66
2023/03/18 07:51:05;;;;;;;;;;;;;;;-144.99;88.98;52301.34;5009261;28;19982;-67
2023/03/18 07:53:33;;;;;;;;;;;;;;;-144.99;89.53;52309.50;5009123;28;20304;-68
2023/03/18 07:56:00;;;;;;;;;;;;;;;-144.99;90.19;52309.50;5008317;28;19954;-67
2023/03/18 07:58:27;;;;;;;;;;;;;;;-144.99;90.02;52301.34;5008770;28;19991;-68
2023/03/18 08:00:54;;;;;;;;;;;;;;;-144.99;90.09;52303.38;5008493;28;19941;-68
2023/03/18 08:03:21;;;;;;;;;;;;;;;-144.99;89.72;52331.91;5007986;28;19972;-68
2023/03/18 08:05:48;;;;;;;;;;;;;;;-144.99;89.56;52317.66;4999960;28;19964;-67
2023/03/18 08:08:15;;;;;;;;;;;;;;;-144.99;89.97;52342.09;5004940;28;20167;-68
2023/03/18 08:10:43;;;;;;;;;;;;;;;-144.99;90.28;52366.56;5007618;28;20124;-68
2023/03/18 08:13:10;;;;;;;;;;;;;;;-144.99;89.92;52360.44;5007942;28;20390;-67
2023/03/18 08:15:36;;;;;;;;;;;;;;;-144.99;89.34;52303.38;5009023;28;20275;-68
2023/03/18 08:18:03;;;;;;;;;;;;;;;-144.99;88.58;52264.66;5006664;28;19925;-67
2023/03/18 08:20:29;;;;;;;;;;;;;;;-144.99;88.52;52350.25;5008035;28;19929;-67
2023/03/18 08:22:56;;;;;;;;;;;;;;;-144.99;88.16;52293.19;5005666;28;19926;-68
2023/03/18 08:25:23;;;;;;;;;;;;;;;-144.99;87.86;52297.25;5008119;28;19969;-67
2023/03/18 08:27:51;;;;;;;;;;;;;;;-144.99;88.13;52307.47;5006513;28;19965;-68
2023/03/18 08:30:18;;;;;;;;;;;;;;;-144.99;88.22;52313.56;5008431;28;20371;-65
2023/03/18 08:32:45;;;;;;;;;;;;;;;-144.99;88.25;52336.00;5008265;28;19980;-65
2023/03/18 08:35:12;;;;;;;;;;;;;;;-144.99;88.63;52313.56;4997160;28;19944;-65
2023/03/18 08:37:39;;;;;;;;;;;;;;;-144.99;88.73;52313.56;5005321;28;20238;-65
2023/03/18 08:40:08;;;;;;;;;;;;;;;-144.99;89.05;52317.66;5009194;28;19929;-66
2023/03/18 08:42:35;;;;;;;;;;;;;;;-144.99;89.03;52354.34;5008192;28;20338;-65
2023/03/18 08:45:03;;;;;;;;;;;;;;;-144.99;88.56;52342.09;5009524;28;20417;-66
2023/03/18 08:47:30;;;;;;;;;;;;;;;-144.99;88.44;52317.66;5009336;28;20386;-70
2023/03/18 08:49:56;;;;;;;;;;;;;;;-144.99;88.42;52268.72;4659895;28;9999903;-69
2023/03/18 08:52:23;;;;;;;;;;;;;;;-144.99;88.81;52333.94;5006608;28;19929;-69
2023/03/18 08:54:49;;;;;;;;;;;;;;;-144.99;88.88;52319.69;5005301;28;19937;-70
2023/03/18 08:57:16;;;;;;;;;;;;;;;-144.99;88.79;52325.81;5007264;28;20007;-70
2023/03/18 08:59:42;;;;;;;;;;;;;;;-144.99;89.35;52293.19;5008586;28;19984;-69
2023/03/18 09:02:15;;;;;;;;;;;;;;;-144.99;89.68;52346.19;5008917;28;19933;-69
2023/03/18 09:04:42;;;;;;;;;;;;;;;-144.99;89.68;52305.41;5009993;28;20399;-69
2023/03/18 09:07:08;;;;;;;;;;;;;;;-144.99;90.00;52319.69;5008491;28;19964;-69
2023/03/18 09:09:35;;;;;;;;;;;;;;;-144.99;90.39;52303.38;5010252;28;19996;-69
2023/03/18 09:12:03;;;;;;;;;;;;;;;-144.99;93.68;52346.19;5009270;28;19925;-69
2023/03/18 09:14:30;;;;;;;;;;;;;;;-144.99;93.78;52309.50;5006817;28;20172;-69
2023/03/18 09:16:56;;;;;;;;;;;;;;;-144.99;93.76;52299.31;5010509;28;19934;-71
2023/03/18 09:19:24;;;;;;;;;;;;;;;-144.99;94.18;52305.41;5011289;28;20353;-71
2023/03/18 09:21:51;;;;;;;;;;;;;;;-144.99;94.34;52350.25;5008151;28;19973;-70
2023/03/18 09:24:17;;;;;;;;;;;;;;;-144.99;94.21;52323.75;5006498;28;19925;-71
2023/03/18 09:26:44;;;;;;;;;;;;;;;-144.99;94.67;52329.88;5010616;28;19968;-71
2023/03/18 09:29:11;;;;;;;;;;;;;;;-144.99;94.50;52354.34;5010323;28;20267;-71
2023/03/18 09:31:37;;;;;;;;;;;;;;;-144.99;94.11;52350.25;5010966;28;20401;-71
2023/03/18 09:34:04;;;;;;;;;;;;;;;-144.99;93.96;52321.72;5007706;28;20060;-71
2023/03/18 09:36:32;;;;;;;;;;;;;;;-144.99;93.93;52313.56;5011127;28;20017;-71
2023/03/18 09:38:59;;;;;;;;;;;;;;;-144.99;93.07;52301.34;5009384;28;20125;-71
2023/03/18 09:41:32;;;;;;;;;;;;;;;-144.99;92.96;52325.81;5009495;28;19930;-71
2023/03/18 09:44:03;;;;;;;;;;;;;;;-144.99;92.56;52287.06;5005072;28;19930;-71
2023/03/18 09:46:35;;;;;;;;;;;;;;;-144.99;92.14;52325.81;5010471;28;19961;-71
2023/03/18 09:49:19;;;;;;;;;;;;;;;-144.99;92.07;52285.03;5003309;28;19933;-71
2023/03/18 09:51:53;;;;;;;;;;;;;;;-144.99;92.22;52301.34;5003629;28;19926;-71
2023/03/18 09:54:26;;;;;;;;;;;;;;;-144.99;91.39;52301.34;5011163;28;20326;-70
2023/03/18 09:56:53;;;;;;;;;;;;;;;-144.99;90.80;52289.13;5009579;28;19957;-70
2023/03/18 09:59:21;;;;;;;;;;;;;;;-144.99;89.80;52252.44;5010580;28;19936;-70
2023/03/18 10:01:50;;;;;;;;;;;;;;;-144.99;87.21;52236.13;5011103;28;19933;-70
2023/03/18 10:04:20;;;;;;;;;;;;;;;-144.99;85.40;52232.03;5010473;28;19975;-70
2023/03/18 10:06:48;;;;;;;;;;;;;;;-144.99;85.14;52232.03;5010894;28;20434;-70
2023/03/18 10:09:20;;;;;;;;;;;;;;;-144.99;84.33;52227.97;5010171;28;20008;-71
2023/03/18 10:11:48;;;;;;;;;;;;;;;-144.99;83.98;52219.81;5006521;28;19926;-70
2023/03/18 10:14:20;;;;;;;;;;;;;;;-144.99;83.06;52260.56;5010259;28;19945;-71
2023/03/18 10:16:57;;;;;;;;;;;;;;;-144.99;81.12;52205.53;5002671;28;20512;-71
2023/03/18 10:19:23;;;;;;;;;;;;;;;-144.99;80.32;52191.28;5000226;28;19957;-71
2023/03/18 10:21:53;;;;;;;;;;;;;;;-144.99;77.00;52166.81;5008970;28;19945;-71
2023/03/18 10:24:26;;;;;;;;;;;;;;;-144.99;76.81;52170.91;5009983;28;19984;-71
2023/03/18 10:26:57;;;;;;;;;;;;;;;-144.99;77.99;52221.84;5008938;28;21637;-71
2023/03/18 10:29:42;;;;;;;;;;;;;;;-144.99;79.93;52262.63;5007861;28;19929;-71
2023/03/18 10:32:11;;;;;;;;;;;;;;;-144.99;81.24;52268.72;5006015;28;19936;-70
2023/03/18 10:34:41;;;;;;;;;;;;;;;-144.99;81.94;52248.34;5009363;28;20329;-71
2023/03/18 10:37:15;;;;;;;;;;;;;;;-144.99;82.39;52268.72;5009684;28;19926;-70
2023/03/18 10:39:44;;;;;;;;;;;;;;;-144.99;83.03;52268.72;5007800;28;19979;-70
2023/03/18 10:42:18;;;;;;;;;;;;;;;-144.99;83.36;52260.56;5008609;28;19961;-70
2023/03/18 10:44:45;;;;;;;;;;;;;;;-144.99;84.66;52293.19;5009464;28;20290;-70
2023/03/18 10:47:15;;;;;;;;;;;;;;;-144.99;84.38;52142.38;5009775;28;20192;-70
2023/03/18 10:49:44;;;;;;;;;;;;;;;-144.99;79.76;52134.22;5007942;28;19961;-70
2023/03/18 10:52:15;;;;;;;;;;;;;;;-144.99;76.34;52117.91;5009905;28;20547;-70
2023/03/18 10:54:45;;;;;;;;;;;;;;;-144.99;74.59;52093.44;5009449;28;19949;-70
2023/03/18 10:57:13;;;;;;;;;;;;;;;-144.99;73.52;52154.59;5008792;28;19926;-70
2023/03/18 10:59:43;;;;;;;;;;;;;;;-144.99;73.84;52105.69;5009272;28;19925;-70
2023/03/18 11:02:14;;;;;;;;;;;;;;;-144.99;74.23;52142.38;5013142;28;19925;-70
2023/03/18 11:04:44;;;;;;;;;;;;;;;-144.99;74.44;52158.66;5015659;28;19976;-70
2023/03/18 11:07:15;;;;;;;;;;;;;;;-144.99;74.24;52172.94;5007130;28;20231;-70
2023/03/18 11:09:43;;;;;;;;;;;;;;;-144.99;74.23;52077.16;5008493;28;19929;-71
2023/03/18 11:12:15;;;;;;;;;;;;;;;-144.99;72.96;52085.31;5015203;28;19936;-71
2023/03/18 11:14:47;;;;;;;;;;;;;;;-144.99;73.51;52134.22;5014906;28;19936;-70
2023/03/18 11:17:19;;;;;;;;;;;;;;;-144.99;73.28;52166.81;5010466;28;19988;-70
2023/03/18 11:19:47;;;;;;;;;;;;;;;-144.99;74.04;52191.28;5014172;28;19933;-71
2023/03/18 11:22:21;;;;;;;;;;;;;;;-144.99;74.51;52215.75;5014681;28;19929;-70
2023/03/18 11:25:01;;;;;;;;;;;;;;;-144.99;75.04;52205.53;4316116;28;10020759;-71
2023/03/18 11:27:29;;;;;;;;;;;;;;;-144.99;76.96;52211.66;5010164;28;19960;-70
2023/03/18 11:29:58;;;;;;;;;;;;;;;-144.99;78.01;52223.88;5004434;28;20583;-70
2023/03/18 11:32:26;;;;;;;;;;;;;;;-144.99;79.06;52077.16;5007473;28;19933;-71
2023/03/18 11:35:00;;;;;;;;;;;;;;;-144.99;78.77;52207.59;5004581;28;20377;-71
2023/03/18 11:37:27;;;;;;;;;;;;;;;-144.99;79.41;52248.34;5002467;28;19989;-69
2023/03/18 11:40:05;;;;;;;;;;;;;;;-144.99;79.70;52232.03;5004260;28;19973;-70
2023/03/18 11:42:33;;;;;;;;;;;;;;;-144.99;80.30;52244.28;5004361;28;19936;-76
2023/03/18 11:45:01;;;;;;;;;;;;;;;-144.99;79.92;52313.56;5003603;28;20028;-67
2023/03/18 11:47:29;;;;;;;;;;;;;;;-144.99;79.76;52244.28;5004190;28;19963;-76
2023/03/18 11:49:56;;;;;;;;;;;;;;;-144.99;79.56;52248.34;5006352;28;19969;-68
2023/03/18 11:52:30;;;;;;;;;;;;;;;-144.99;78.33;52268.72;5006914;28;19999;-68
2023/03/18 11:55:10;;;;;;;;;;;;;;;-144.99;77.16;52262.63;5005790;28;19933;-67
2023/03/18 11:57:45;;;;;;;;;;;;;;;-144.99;77.00;52232.03;5005412;28;20301;-70
2023/03/18 12:00:18;;;;;;;;;;;;;;;-144.99;78.08;52240.19;5005286;28;19991;-67
2023/03/18 12:02:57;;;;;;;;;;;;;;;-144.99;78.24;52207.59;5006999;28;19925;-68
2023/03/18 12:05:36;;;;;;;;;;;;;;;-144.99;77.74;52236.13;4997900;28;21014;-69
2023/03/18 12:08:08;;;;;;;;;;;;;;;-144.99;77.44;52272.81;5004434;28;19929;-69
2023/03/18 12:10:36;;;;;;;;;;;;;;;-144.99;77.36;52223.88;5005156;28;19925;-69
2023/03/18 12:13:22;;;;;;;;;;;;;;;-144.99;75.74;52207.59;5009529;28;19933;-69
2023/03/18 12:15:52;;;;;;;;;;;;;;;-144.99;74.18;52191.28;5009380;28;19987;-68
2023/03/18 12:18:33;;;;;;;;;;;;;;;-144.99;73.32;52203.50;5010712;28;19988;-68
2023/03/18 12:21:03;;;;;;;;;;;;;;;-144.99;72.39;52162.75;5003157;28;20039;-67
2023/03/18 12:23:44;;;;;;;;;;;;;;;-144.99;71.26;52117.91;5009844;28;20014;-68
2023/03/18 12:26:14;;;;;;;;;;;;;;;-144.99;71.12;52203.50;5007098;28;20409;-67
2023/03/18 12:28:46;;;;;;;;;;;;;;;-144.99;72.03;52219.81;5009618;28;20373;-68
2023/03/18 12:31:28;;;;;;;;;;;;;;;-144.99;72.97;52219.81;5010080;28;20036;-67